Time;durP1;ratioP1;P1;durP2;ratioP2;P2;SDS_P1;SDS_P2;PMS_P1;PMS_P2;Temp;Humidity;BMP_temperature;BMP_pressure;BME280_temperature;BME280_humidity;BME280_pressure;Samples;Min_cycle;Max_cycle;Signal;HPM_P1;HPM_P2
2021/07/01 01:04:48;;;;;;;10.18;3.70;;;13.90;99.90;;;;;;4990333;28;20439;-56
2021/07/01 01:07:14;;;;;;;7.40;3.20;;;13.90;99.90;;;;;;4989409;28;20430;-56
2021/07/01 01:09:40;;;;;;;6.57;2.58;;;13.90;99.90;;;;;;4988936;28;20787;-55
2021/07/01 01:12:07;;;;;;;6.60;3.20;;;13.90;99.90;;;;;;4989254;28;20891;-55
2021/07/01 01:14:32;;;;;;;5.78;3.00;;;13.80;99.90;;;;;;4989307;28;20433;-56
2021/07/01 01:16:58;;;;;;;6.00;2.90;;;13.90;99.90;;;;;;4989106;28;20802;-56
2021/07/01 01:19:24;;;;;;;6.05;2.72;;;14.00;99.90;;;;;;4989414;28;20391;-56
2021/07/01 01:21:49;;;;;;;6.80;2.90;;;13.90;99.90;;;;;;4988621;28;20734;-55
2021/07/01 01:24:15;;;;;;;6.72;2.80;;;13.90;99.90;;;;;;4987880;28;20425;-56
2021/07/01 01:26:41;;;;;;;5.93;2.57;;;13.90;99.90;;;;;;4988268;28;20407;-54
2021/07/01 01:29:07;;;;;;;5.32;3.00;;;13.80;99.90;;;;;;4989397;28;20390;-56
2021/07/01 01:31:36;;;;;;;7.38;3.38;;;13.80;99.90;;;;;;4988937;28;20383;-56
2021/07/01 01:34:01;;;;;;;5.97;2.90;;;13.80;99.90;;;;;;4988295;28;20413;-55
2021/07/01 01:36:27;;;;;;;6.85;2.78;;;13.80;99.90;;;;;;4988991;28;20398;-55
2021/07/01 01:38:53;;;;;;;5.97;3.00;;;13.70;99.90;;;;;;4988047;28;20465;-56
2021/07/01 01:41:25;;;;;;;7.10;3.30;;;13.80;99.90;;;;;;4988462;28;20390;-55
2021/07/01 01:43:51;;;;;;;6.50;3.10;;;13.80;99.90;;;;;;4987816;28;20737;-55
2021/07/01 01:46:19;;;;;;;5.90;3.38;;;13.80;99.90;;;;;;4988845;28;20427;-57
2021/07/01 01:48:55;;;;;;;6.60;2.95;;;13.90;99.90;;;;;;4988036;28;20845;-56
2021/07/01 01:51:21;;;;;;;8.05;3.22;;;13.80;99.90;;;;;;4988721;28;20410;-55
2021/07/01 01:53:46;;;;;;;7.30;3.50;;;13.80;99.90;;;;;;4987901;28;20460;-56
2021/07/01 01:56:12;;;;;;;7.03;3.70;;;13.80;99.90;;;;;;4988438;28;20908;-56
2021/07/01 01:58:38;;;;;;;7.77;3.70;;;13.80;99.90;;;;;;4990591;28;20386;-54
2021/07/01 02:01:03;;;;;;;9.90;3.70;;;13.80;99.90;;;;;;4992199;28;20418;-55
2021/07/01 02:03:29;;;;;;;8.23;3.28;;;13.90;99.90;;;;;;4991651;28;20533;-56
2021/07/01 02:05:54;;;;;;;6.50;3.60;;;13.80;99.90;;;;;;4991667;28;20413;-56
2021/07/01 02:08:20;;;;;;;6.82;3.70;;;13.90;99.90;;;;;;4991554;28;20769;-56
2021/07/01 02:10:46;;;;;;;9.23;4.23;;;14.00;99.90;;;;;;4991786;28;20383;-55
2021/07/01 02:13:11;;;;;;;6.90;4.00;;;13.90;99.90;;;;;;4992620;28;20394;-55
2021/07/01 02:15:38;;;;;;;7.05;3.88;;;13.90;99.90;;;;;;4992523;28;20391;-55
2021/07/01 02:18:03;;;;;;;6.55;3.25;;;14.00;99.90;;;;;;4991580;28;20477;-56
2021/07/01 02:20:29;;;;;;;10.10;4.00;;;14.00;99.90;;;;;;4991850;28;20745;-55
2021/07/01 02:22:55;;;;;;;9.32;3.97;;;14.00;99.90;;;;;;4991106;28;20875;-56
2021/07/01 02:25:21;;;;;;;7.03;4.03;;;14.00;99.90;;;;;;4992232;28;20493;-55
2021/07/01 02:27:47;;;;;;;11.20;4.10;;;14.10;99.90;;;;;;4991392;28;20534;-55
2021/07/01 02:30:16;;;;;;;7.10;3.30;;;14.20;99.90;;;;;;4991008;28;20439;-56
2021/07/01 02:32:42;;;;;;;8.57;3.60;;;14.30;99.90;;;;;;4991277;28;20757;-54
2021/07/01 02:35:09;;;;;;;8.07;3.90;;;14.30;99.90;;;;;;4991734;28;20395;-56
2021/07/01 02:37:36;;;;;;;6.70;3.00;;;14.30;99.90;;;;;;4991972;28;20414;-56
2021/07/01 02:40:05;;;;;;;7.13;3.50;;;14.20;99.90;;;;;;4991282;28;20485;-56
2021/07/01 02:42:30;;;;;;;6.77;3.60;;;14.10;99.90;;;;;;4992016;28;20861;-56
2021/07/01 02:44:56;;;;;;;8.52;3.90;;;14.10;99.90;;;;;;4991297;28;20393;-55
2021/07/01 02:47:21;;;;;;;7.33;3.40;;;14.20;99.90;;;;;;4991549;28;20509;-56
2021/07/01 02:49:47;;;;;;;7.25;3.80;;;14.10;99.90;;;;;;4990834;28;20386;-55
2021/07/01 02:52:13;;;;;;;6.80;3.92;;;14.20;99.90;;;;;;4991380;28;20389;-56
2021/07/01 02:54:38;;;;;;;10.10;3.57;;;14.30;99.90;;;;;;4991539;28;20382;-54
2021/07/01 02:57:04;;;;;;;6.53;3.75;;;14.10;99.90;;;;;;4990840;28;20413;-56
2021/07/01 02:59:30;;;;;;;6.73;3.40;;;14.10;99.90;;;;;;4991617;28;20710;-56
2021/07/01 03:01:55;;;;;;;8.23;3.85;;;14.10;99.90;;;;;;4990574;28;20924;-55
2021/07/01 03:04:21;;;;;;;7.47;3.38;;;14.00;99.90;;;;;;4989746;28;20532;-55
2021/07/01 03:06:47;;;;;;;6.60;3.40;;;13.90;99.90;;;;;;4990384;28;20436;-55
2021/07/01 03:09:12;;;;;;;7.00;3.20;;;14.00;99.90;;;;;;4991235;28;20390;-56
2021/07/01 03:11:39;;;;;;;6.87;3.43;;;14.00;99.90;;;;;;4991373;28;20796;-55
2021/07/01 03:14:05;;;;;;;6.57;3.22;;;14.00;99.90;;;;;;4990503;28;20469;-55
2021/07/01 03:16:32;;;;;;;7.25;3.53;;;13.90;99.90;;;;;;4991263;28;20441;-56
2021/07/01 03:18:58;;;;;;;7.23;4.07;;;13.90;99.90;;;;;;4990221;28;20394;-55
2021/07/01 03:21:24;;;;;;;6.55;3.75;;;14.00;99.90;;;;;;4991142;28;20386;-55
2021/07/01 03:23:50;;;;;;;7.35;3.58;;;14.00;99.90;;;;;;4990261;28;20869;-55
2021/07/01 03:26:17;;;;;;;8.67;4.20;;;13.90;99.90;;;;;;4990899;28;20414;-55
2021/07/01 03:28:44;;;;;;;6.72;3.90;;;14.00;99.90;;;;;;4990561;28;20395;-53
2021/07/01 03:31:10;;;;;;;7.50;4.10;;;13.90;99.90;;;;;;4990530;28;20387;-56
2021/07/01 03:33:36;;;;;;;8.53;4.57;;;14.00;99.90;;;;;;4990948;28;20877;-55
2021/07/01 03:36:04;;;;;;;7.43;3.90;;;14.10;99.90;;;;;;4990321;28;20394;-55
2021/07/01 03:38:30;;;;;;;6.55;3.38;;;14.10;99.90;;;;;;4990712;28;20401;-56
2021/07/01 03:40:56;;;;;;;7.72;3.63;;;14.00;99.90;;;;;;4989793;28;20449;-55
2021/07/01 03:43:22;;;;;;;7.82;3.70;;;14.10;99.90;;;;;;4990581;28;20374;-55
2021/07/01 03:45:48;;;;;;;6.43;3.43;;;14.00;99.90;;;;;;4989938;28;20456;-54
2021/07/01 03:48:13;;;;;;;7.55;3.70;;;14.10;99.90;;;;;;4990968;28;20409;-55
2021/07/01 03:50:40;;;;;;;7.72;3.90;;;14.20;99.90;;;;;;4990523;28;20876;-55
2021/07/01 03:53:06;;;;;;;8.10;3.80;;;14.10;99.90;;;;;;4990031;28;20433;-56
2021/07/01 03:55:32;;;;;;;6.70;3.87;;;14.20;99.90;;;;;;4990591;28;20418;-55
2021/07/01 03:57:58;;;;;;;6.80;3.50;;;14.30;99.90;;;;;;4989642;28;20872;-56
2021/07/01 04:00:23;;;;;;;6.35;3.83;;;14.30;99.90;;;;;;4990343;28;20386;-56
2021/07/01 04:02:49;;;;;;;7.83;4.00;;;14.40;99.90;;;;;;4989613;28;20390;-56
2021/07/01 04:05:15;;;;;;;7.38;4.20;;;14.40;99.90;;;;;;4990245;28;20449;-56
2021/07/01 04:07:42;;;;;;;9.93;5.03;;;14.50;99.90;;;;;;4989955;28;20470;-53
2021/07/01 04:10:11;;;;;;;9.38;4.60;;;14.60;99.90;;;;;;4989769;28;20386;-55
2021/07/01 04:12:37;;;;;;;8.70;3.90;;;14.70;99.90;;;;;;4990426;28;20389;-55
2021/07/01 04:15:04;;;;;;;9.48;3.40;;;14.70;99.90;;;;;;4989473;28;20426;-55
2021/07/01 04:17:30;;;;;;;5.70;2.75;;;14.70;99.90;;;;;;4990130;28;20394;-55
2021/07/01 04:19:55;;;;;;;5.95;2.95;;;14.70;99.90;;;;;;4988738;28;20406;-55
2021/07/01 04:22:21;;;;;;;6.17;2.83;;;14.60;99.90;;;;;;4989770;28;20382;-55
2021/07/01 04:24:47;;;;;;;6.20;3.08;;;14.60;99.90;;;;;;4989098;28;20873;-55
2021/07/01 04:27:13;;;;;;;7.50;3.10;;;14.60;99.90;;;;;;4990159;28;20888;-56
2021/07/01 04:29:39;;;;;;;5.72;3.20;;;14.50;99.90;;;;;;4989705;28;20702;-55
2021/07/01 04:32:05;;;;;;;6.60;3.33;;;14.50;99.90;;;;;;4988786;28;20403;-55
2021/07/01 04:34:30;;;;;;;6.97;2.70;;;14.60;99.90;;;;;;4989206;28;20788;-56
2021/07/01 04:36:56;;;;;;;6.93;3.30;;;14.60;99.90;;;;;;4987161;28;20414;-55
2021/07/01 04:39:22;;;;;;;7.70;2.70;;;14.60;99.90;;;;;;4986861;28;20852;-54
2021/07/01 04:41:47;;;;;;;6.45;2.70;;;14.60;99.90;;;;;;4988661;28;20430;-54
2021/07/01 04:44:13;;;;;;;5.47;2.40;;;14.70;99.90;;;;;;4989319;28;20390;-56
2021/07/01 04:46:39;;;;;;;6.00;2.90;;;14.80;99.90;;;;;;4989081;28;20450;-56
2021/07/01 04:49:04;;;;;;;5.38;2.50;;;14.80;99.90;;;;;;4988397;28;20394;-56
2021/07/01 04:51:30;;;;;;;5.90;2.50;;;14.80;99.90;;;;;;4989204;28;20458;-55
2021/07/01 04:53:56;;;;;;;6.45;2.70;;;14.90;99.90;;;;;;4988716;28;20872;-55
2021/07/01 04:56:21;;;;;;;10.40;2.90;;;14.90;99.90;;;;;;4989563;28;20394;-55
2021/07/01 04:58:47;;;;;;;5.83;2.60;;;15.00;99.90;;;;;;4988432;28;20811;-55
2021/07/01 05:01:13;;;;;;;6.05;3.03;;;14.90;99.90;;;;;;4989911;28;20868;-56
2021/07/01 05:03:38;;;;;;;6.07;2.70;;;14.90;99.90;;;;;;4989019;28;20765;-56
2021/07/01 05:06:04;;;;;;;6.00;2.40;;;14.80;99.90;;;;;;4988536;28;21103;-56
2021/07/01 05:08:30;;;;;;;5.53;2.30;;;14.80;99.90;;;;;;4988827;28;20932;-56
2021/07/01 05:10:56;;;;;;;5.53;2.60;;;14.70;99.90;;;;;;4988453;28;20393;-57
2021/07/01 05:13:21;;;;;;;6.20;2.50;;;14.70;99.90;;;;;;4989588;28;20383;-56
2021/07/01 05:15:48;;;;;;;5.10;2.53;;;14.70;99.90;;;;;;4987282;28;20403;-55
2021/07/01 05:18:13;;;;;;;6.20;2.50;;;14.70;99.90;;;;;;4989371;28;20391;-56
2021/07/01 05:20:39;;;;;;;5.30;2.67;;;14.70;99.90;;;;;;4988991;28;20845;-56
2021/07/01 05:23:05;;;;;;;5.80;2.78;;;14.70;99.90;;;;;;4987937;28;20395;-56
2021/07/01 05:25:31;;;;;;;7.40;3.33;;;14.70;99.90;;;;;;4988789;28;20402;-56
2021/07/01 05:27:57;;;;;;;5.15;2.80;;;14.70;99.90;;;;;;4987885;28;20397;-56
2021/07/01 05:30:23;;;;;;;7.70;3.67;;;14.80;99.90;;;;;;4987416;28;20395;-55
2021/07/01 05:32:49;;;;;;;8.13;3.20;;;14.80;99.90;;;;;;4990715;28;20399;-56
2021/07/01 05:35:14;;;;;;;6.00;2.97;;;14.90;99.90;;;;;;4995631;28;20799;-55
2021/07/01 05:37:40;;;;;;;5.93;2.60;;;14.70;99.90;;;;;;5010677;28;20393;-55
2021/07/01 05:40:06;;;;;;;6.70;2.97;;;14.50;99.90;;;;;;5007802;28;20739;-56
2021/07/01 05:42:32;;;;;;;6.00;2.95;;;14.50;99.90;;;;;;4995964;28;20402;-56
2021/07/01 05:44:58;;;;;;;5.75;2.42;;;14.50;99.90;;;;;;5006595;28;20387;-56
2021/07/01 05:47:24;;;;;;;6.60;2.70;;;14.60;99.90;;;;;;5005441;28;20853;-56
2021/07/01 05:49:49;;;;;;;5.88;3.10;;;14.60;99.90;;;;;;5004763;28;20395;-55
2021/07/01 05:52:22;;;;;;;6.93;3.00;;;14.70;99.90;;;;;;4983394;28;20438;-56
2021/07/01 05:54:57;;;;;;;5.10;2.28;;;14.80;99.90;;;;;;4995127;28;20461;-56
2021/07/01 05:57:24;;;;;;;7.00;3.30;;;14.70;99.90;;;;;;4994951;28;20436;-59
2021/07/01 05:59:50;;;;;;;6.68;2.90;;;14.70;99.90;;;;;;4996848;28;20424;-58
2021/07/01 06:02:15;;;;;;;6.63;3.00;;;14.80;99.90;;;;;;5005659;28;20385;-58
2021/07/01 06:04:41;;;;;;;10.60;3.30;;;14.80;99.90;;;;;;4995488;28;20422;-58
2021/07/01 06:07:09;;;;;;;6.90;2.80;;;14.90;99.90;;;;;;5006570;28;20414;-59
2021/07/01 06:09:37;;;;;;;9.02;2.88;;;14.90;99.90;;;;;;4998945;28;20397;-58
2021/07/01 06:12:03;;;;;;;5.05;2.70;;;14.90;99.90;;;;;;4999027;28;20426;-59
2021/07/01 06:14:30;;;;;;;5.65;2.53;;;14.90;99.90;;;;;;5007459;28;20423;-59
2021/07/01 06:17:02;;;;;;;6.80;3.00;;;14.90;99.90;;;;;;5008864;28;20405;-59
2021/07/01 06:19:27;;;;;;;5.80;3.10;;;15.10;99.90;;;;;;5005044;28;20390;-59
2021/07/01 06:21:53;;;;;;;5.90;2.80;;;15.10;99.90;;;;;;4998001;28;20887;-58
2021/07/01 06:24:19;;;;;;;5.55;2.90;;;15.00;99.90;;;;;;4992923;28;20662;-59
2021/07/01 06:26:47;;;;;;;7.60;3.03;;;15.00;99.90;;;;;;4999603;28;20415;-58
2021/07/01 06:29:14;;;;;;;6.28;3.33;;;14.00;99.90;;;;;;5008316;28;20392;-59
2021/07/01 06:31:40;;;;;;;6.40;2.60;;;14.80;99.90;;;;;;5010691;28;20439;-58
2021/07/01 06:34:07;;;;;;;6.20;2.70;;;14.90;99.90;;;;;;4998641;28;20394;-59
2021/07/01 06:36:40;;;;;;;6.67;3.37;;;15.10;99.90;;;;;;4991912;28;20386;-59
2021/07/01 06:39:06;;;;;;;7.05;3.40;;;15.20;99.90;;;;;;4989594;28;20448;-58
2021/07/01 06:41:35;;;;;;;7.60;3.17;;;15.30;99.90;;;;;;4991616;28;20430;-59
2021/07/01 06:44:02;;;;;;;6.93;3.23;;;15.50;99.90;;;;;;4989190;28;20398;-59
2021/07/01 06:46:31;;;;;;;6.72;3.30;;;15.50;99.90;;;;;;4991127;28;20844;-58
2021/07/01 06:48:58;;;;;;;5.75;3.10;;;15.60;99.90;;;;;;4998322;28;20395;-58
2021/07/01 06:51:24;;;;;;;5.40;2.50;;;15.70;99.90;;;;;;4998277;28;20403;-59
2021/07/01 06:53:52;;;;;;;5.50;2.85;;;15.70;99.90;;;;;;4994249;28;20391;-57
2021/07/01 06:56:21;;;;;;;8.20;3.60;;;15.60;99.90;;;;;;5010506;28;20877;-58
2021/07/01 06:58:47;;;;;;;7.43;3.00;;;15.70;99.90;;;;;;5002059;28;20507;-58
2021/07/01 07:01:13;;;;;;;6.97;3.10;;;15.70;99.90;;;;;;4998407;28;20503;-59
2021/07/01 07:03:39;;;;;;;7.57;2.97;;;15.80;99.90;;;;;;5001991;28;20399;-59
2021/07/01 07:06:05;;;;;;;5.57;2.93;;;15.70;99.90;;;;;;5007477;28;20499;-58
2021/07/01 07:08:31;;;;;;;6.38;2.80;;;15.90;99.90;;;;;;4995275;28;20393;-58
2021/07/01 07:10:58;;;;;;;6.35;2.65;;;15.90;99.90;;;;;;5006318;28;20747;-58
2021/07/01 07:13:26;;;;;;;6.30;2.78;;;16.00;99.90;;;;;;4995940;28;20385;-57
2021/07/01 07:15:59;;;;;;;5.90;2.60;;;15.90;99.90;;;;;;5002487;28;20507;-58
2021/07/01 07:18:27;;;;;;;4.97;2.40;;;16.00;99.90;;;;;;4997684;28;20393;-58
2021/07/01 07:21:14;;;;;;;6.95;2.70;;;16.10;99.90;;;;;;5006011;28;20866;-58
2021/07/01 07:23:40;;;;;;;7.15;3.25;;;16.10;99.90;;;;;;4999387;28;20392;-58
2021/07/01 07:26:22;;;;;;;5.40;2.80;;;16.10;99.90;;;;;;4997315;28;20414;-58
2021/07/01 07:28:53;;;;;;;5.95;2.80;;;16.00;99.90;;;;;;5002418;28;20443;-58
2021/07/01 07:31:28;;;;;;;5.30;2.80;;;16.00;99.90;;;;;;5002125;28;20495;-57
2021/07/01 07:33:59;;;;;;;5.97;3.15;;;16.10;99.90;;;;;;5002328;28;20413;-58
2021/07/01 07:36:26;;;;;;;5.93;2.70;;;16.30;99.90;;;;;;5001250;28;20397;-57
2021/07/01 07:38:53;;;;;;;7.80;3.00;;;16.50;99.90;;;;;;4994762;28;20833;-57
2021/07/01 07:41:20;;;;;;;5.15;2.47;;;16.60;99.90;;;;;;5006484;28;20416;-57
2021/07/01 07:43:47;;;;;;;6.30;2.80;;;16.50;99.90;;;;;;4988663;28;20401;-57
2021/07/01 07:46:17;;;;;;;7.20;2.88;;;16.40;99.90;;;;;;4990151;28;20413;-57
2021/07/01 07:48:43;;;;;;;6.40;3.15;;;16.50;99.90;;;;;;4989975;28;20410;-58
2021/07/01 07:51:11;;;;;;;6.05;2.80;;;16.50;99.90;;;;;;4989844;28;20560;-58
2021/07/01 07:53:40;;;;;;;7.65;2.92;;;16.50;99.90;;;;;;4989894;28;20438;-58
2021/07/01 07:56:07;;;;;;;5.40;2.30;;;16.50;99.90;;;;;;4988511;28;20491;-57
2021/07/01 07:58:39;;;;;;;5.27;2.63;;;16.50;99.90;;;;;;4990152;28;20398;-57
2021/07/01 08:01:08;;;;;;;6.63;3.00;;;16.70;99.90;;;;;;4989106;28;20478;-57
2021/07/01 08:03:38;;;;;;;5.57;2.60;;;16.70;99.90;;;;;;4989680;28;20415;-57
2021/07/01 08:06:07;;;;;;;9.10;3.10;;;16.70;99.90;;;;;;4989417;28;20477;-58
2021/07/01 08:08:38;;;;;;;6.40;3.10;;;16.80;99.90;;;;;;4989879;28;20457;-58
2021/07/01 08:11:06;;;;;;;7.22;3.30;;;16.70;99.90;;;;;;4989207;28;20394;-57
2021/07/01 08:13:33;;;;;;;5.90;3.00;;;16.70;99.90;;;;;;4989857;28;20382;-58
2021/07/01 08:15:59;;;;;;;6.80;2.90;;;16.70;99.90;;;;;;4989199;28;20387;-57
2021/07/01 08:18:29;;;;;;;6.70;3.30;;;16.90;99.90;;;;;;4989333;28;20884;-58
2021/07/01 08:20:56;;;;;;;5.53;3.10;;;17.10;99.90;;;;;;4989095;28;20417;-58
2021/07/01 08:23:21;;;;;;;5.85;3.05;;;17.20;99.90;;;;;;4989245;28;20446;-58
2021/07/01 08:25:48;;;;;;;8.90;3.10;;;17.10;99.90;;;;;;4992861;28;20841;-58
2021/07/01 08:28:21;;;;;;;6.50;3.10;;;17.10;99.90;;;;;;5006032;28;20961;-59
2021/07/01 08:30:48;;;;;;;9.18;3.10;;;17.20;99.90;;;;;;5008738;28;20392;-58
2021/07/01 08:33:19;;;;;;;6.53;3.20;;;17.40;99.90;;;;;;5009203;28;20885;-59
2021/07/01 08:35:48;;;;;;;5.78;2.97;;;17.40;99.90;;;;;;5007632;28;20408;-58
2021/07/01 08:38:14;;;;;;;7.32;3.20;;;17.00;99.90;;;;;;5008978;28;20392;-58
2021/07/01 08:40:46;;;;;;;7.35;3.40;;;17.10;99.90;;;;;;5004555;28;20390;-58
2021/07/01 08:43:16;;;;;;;6.22;3.10;;;17.10;99.90;;;;;;4989290;28;20386;-59
2021/07/01 08:46:01;;;;;;;6.70;3.20;;;17.20;99.90;;;;;;4987662;28;20425;-59
2021/07/01 08:48:42;;;;;;;5.50;2.90;;;17.10;99.90;;;;;;4988999;28;20398;-58
2021/07/01 08:51:10;;;;;;;5.60;3.00;;;17.10;99.90;;;;;;4989007;28;20371;-58
2021/07/01 08:54:10;;;;;;;6.30;3.45;;;17.30;99.90;;;;;;4989483;28;20444;-58
2021/07/01 08:56:37;;;;;;;6.50;3.40;;;17.40;99.90;;;;;;4989094;28;20387;-58
2021/07/01 08:59:05;;;;;;;8.90;3.00;;;17.60;99.90;;;;;;4988229;28;20792;-58
2021/07/01 09:01:31;;;;;;;6.10;3.50;;;17.70;99.90;;;;;;4989084;28;20387;-58
2021/07/01 09:03:58;;;;;;;7.33;3.10;;;17.80;99.90;;;;;;4988369;28;20476;-58
2021/07/01 09:06:26;;;;;;;7.20;3.00;;;17.70;99.90;;;;;;4989046;28;20414;-58
2021/07/01 09:08:53;;;;;;;7.20;3.00;;;17.70;99.90;;;;;;4988998;28;20387;-58
2021/07/01 09:11:22;;;;;;;5.95;2.90;;;17.40;99.90;;;;;;4989158;28;20960;-58
2021/07/01 09:13:50;;;;;;;7.57;3.20;;;17.60;99.90;;;;;;4989199;28;20398;-58
2021/07/01 09:16:17;;;;;;;6.67;3.33;;;17.50;99.90;;;;;;4989087;28;20414;-59
2021/07/01 09:18:45;;;;;;;9.13;3.10;;;17.50;99.90;;;;;;4989594;28;20497;-60
2021/07/01 09:21:13;;;;;;;6.88;3.20;;;17.40;99.90;;;;;;4988623;28;20402;-59
2021/07/01 09:23:47;;;;;;;6.60;3.10;;;17.40;99.90;;;;;;4989360;28;20833;-58
2021/07/01 09:26:23;;;;;;;5.90;3.15;;;17.30;99.90;;;;;;4988662;28;20425;-58
2021/07/01 09:28:50;;;;;;;8.47;3.63;;;17.20;99.90;;;;;;4988717;28;20490;-58
2021/07/01 09:31:19;;;;;;;7.33;3.30;;;17.40;99.90;;;;;;4988906;28;21070;-58
2021/07/01 09:33:46;;;;;;;6.90;3.70;;;17.50;99.90;;;;;;4988671;28;20440;-58
2021/07/01 09:36:14;;;;;;;9.57;4.15;;;17.60;99.90;;;;;;4988689;28;20577;-58
2021/07/01 09:38:43;;;;;;;9.55;3.60;;;17.70;99.90;;;;;;4989063;28;20592;-58
2021/07/01 09:41:11;;;;;;;7.75;4.00;;;17.80;99.90;;;;;;4987955;28;20413;-59
2021/07/01 09:43:39;;;;;;;7.10;3.90;;;17.90;99.90;;;;;;4988426;28;20422;-58
2021/07/01 09:46:06;;;;;;;7.20;4.20;;;17.90;99.90;;;;;;4986737;28;20461;-58
2021/07/01 09:48:35;;;;;;;9.30;3.60;;;17.80;99.90;;;;;;4993275;28;20424;-58
2021/07/01 09:51:03;;;;;;;7.45;4.10;;;17.90;99.90;;;;;;5007993;28;20380;-58
2021/07/01 09:53:33;;;;;;;11.50;4.10;;;17.90;99.90;;;;;;4996755;28;20397;-58
2021/07/01 09:56:07;;;;;;;11.60;4.30;;;18.10;99.90;;;;;;4996808;28;20394;-58
2021/07/01 09:58:38;;;;;;;8.60;3.80;;;18.40;99.90;;;;;;4991408;28;20449;-58
2021/07/01 10:01:04;;;;;;;7.38;4.20;;;18.40;99.90;;;;;;4991999;28;20430;-58
2021/07/01 10:03:30;;;;;;;7.90;4.10;;;18.50;99.90;;;;;;4993200;28;20441;-58
2021/07/01 10:05:55;;;;;;;8.17;4.37;;;18.40;99.90;;;;;;4991325;28;20464;-59
2021/07/01 10:08:40;;;;;;;8.27;4.50;;;18.00;99.90;;;;;;4991703;28;20405;-58
2021/07/01 10:11:06;;;;;;;8.40;4.15;;;17.80;99.90;;;;;;4996628;28;20451;-58
2021/07/01 10:13:34;;;;;;;6.88;4.15;;;17.40;99.90;;;;;;4992146;28;20481;-58
2021/07/01 10:16:00;;;;;;;8.40;4.70;;;17.10;99.90;;;;;;4992971;28;20796;-58
2021/07/01 10:18:27;;;;;;;8.45;3.63;;;17.00;99.90;;;;;;5001569;28;20397;-59
2021/07/01 10:20:57;;;;;;;5.07;2.50;;;16.90;99.90;;;;;;5004770;28;20481;-54
2021/07/01 10:23:33;;;;;;;5.03;2.42;;;16.30;99.90;;;;;;5002566;28;20397;-54
2021/07/01 10:26:08;;;;;;;6.75;2.90;;;16.00;99.90;;;;;;5000454;28;20904;-54
2021/07/01 10:28:34;;;;;;;6.18;3.00;;;15.80;99.90;;;;;;5005158;28;20475;-55
2021/07/01 10:31:03;;;;;;;6.00;3.00;;;15.50;99.90;;;;;;5004929;28;20468;-54
2021/07/01 10:33:34;;;;;;;6.38;2.90;;;15.40;99.90;;;;;;5011190;28;20420;-55
2021/07/01 10:36:02;;;;;;;6.17;3.17;;;15.60;99.90;;;;;;5010632;28;20379;-55
2021/07/01 10:38:49;;;;;;;6.95;3.38;;;15.70;99.90;;;;;;5011737;28;20384;-55
2021/07/01 10:41:32;;;;;;;6.90;3.30;;;15.80;99.90;;;;;;5011064;28;20476;-54
2021/07/01 10:43:59;;;;;;;6.70;3.20;;;15.90;99.90;;;;;;5010430;28;20467;-55
2021/07/01 10:46:44;;;;;;;7.13;4.10;;;15.70;99.90;;;;;;5011221;28;20416;-55
2021/07/01 10:49:12;;;;;;;6.50;3.30;;;15.80;99.90;;;;;;5010236;28;20388;-54
2021/07/01 10:51:52;;;;;;;6.53;3.63;;;15.80;99.90;;;;;;5010931;28;20713;-55
2021/07/01 10:54:18;;;;;;;6.22;3.03;;;16.10;99.90;;;;;;4992283;28;20378;-54
2021/07/01 10:56:45;;;;;;;7.00;3.40;;;16.20;99.90;;;;;;4991647;28;20393;-55
2021/07/01 10:59:12;;;;;;;7.93;3.70;;;16.40;99.90;;;;;;4990292;28;20453;-55
2021/07/01 11:01:43;;;;;;;6.50;3.30;;;16.50;99.90;;;;;;4990835;28;20506;-55
2021/07/01 11:04:19;;;;;;;8.00;3.50;;;16.50;99.90;;;;;;4990566;28;20414;-54
2021/07/01 11:06:57;;;;;;;7.03;3.30;;;16.60;99.90;;;;;;4991443;28;20420;-55
2021/07/01 11:09:23;;;;;;;7.50;3.28;;;16.80;99.90;;;;;;4991583;28;20383;-55
2021/07/01 11:12:01;;;;;;;6.40;3.28;;;16.90;99.90;;;;;;4991341;28;20390;-55
2021/07/01 11:14:38;;;;;;;8.10;3.30;;;17.10;99.90;;;;;;4990964;28;20769;-55
2021/07/01 11:17:04;;;;;;;7.65;3.33;;;17.10;99.90;;;;;;4991070;28;20379;-55
2021/07/01 11:19:47;;;;;;;9.70;3.30;;;17.20;99.90;;;;;;4989957;28;20399;-55
2021/07/01 11:22:14;;;;;;;8.35;3.28;;;17.10;99.90;;;;;;4990604;28;20985;-55
2021/07/01 11:24:43;;;;;;;7.10;3.60;;;17.00;99.90;;;;;;4991196;28;20379;-55
2021/07/01 11:27:08;;;;;;;7.10;3.38;;;17.10;99.90;;;;;;4989194;28;20909;-55
2021/07/01 11:29:44;;;;;;;6.80;3.20;;;17.30;99.90;;;;;;4991123;28;20398;-55
2021/07/01 11:32:20;;;;;;;8.38;3.97;;;17.30;99.90;;;;;;4990197;28;20386;-55
2021/07/01 11:34:50;;;;;;;7.20;3.03;;;17.50;99.90;;;;;;4990962;28;20407;-55
2021/07/01 11:37:48;;;;;;;6.30;3.10;;;17.60;99.90;;;;;;4991161;28;20389;-56
2021/07/01 11:40:20;;;;;;;6.50;3.50;;;17.40;99.90;;;;;;4983537;28;20376;-55
2021/07/01 11:42:49;;;;;;;6.32;3.20;;;17.40;99.90;;;;;;4991236;28;20444;-55
2021/07/01 11:45:15;;;;;;;6.72;3.58;;;17.40;99.90;;;;;;4988607;28;20902;-55
2021/07/01 11:47:45;;;;;;;8.48;3.72;;;17.60;99.90;;;;;;4990246;28;20437;-55
2021/07/01 11:50:12;;;;;;;6.15;3.30;;;17.50;99.90;;;;;;4989398;28;20425;-54
2021/07/01 11:52:39;;;;;;;7.43;3.50;;;17.50;99.90;;;;;;4990380;28;20394;-55
2021/07/01 11:55:05;;;;;;;7.65;3.58;;;17.60;99.90;;;;;;4989497;28;20374;-55
2021/07/01 11:57:31;;;;;;;6.67;3.60;;;17.60;99.90;;;;;;4991208;28;20694;-55
2021/07/01 11:59:57;;;;;;;9.50;4.00;;;17.60;99.90;;;;;;4993835;28;20397;-54
2021/07/01 12:02:24;;;;;;;7.22;3.20;;;17.70;99.90;;;;;;4990343;28;20394;-58
2021/07/01 12:04:50;;;;;;;7.18;3.15;;;17.70;99.90;;;;;;4988986;28;20924;-55
2021/07/01 12:07:16;;;;;;;7.80;3.42;;;17.60;99.90;;;;;;4986585;28;20414;-54
2021/07/01 12:09:43;;;;;;;6.53;3.20;;;17.60;99.90;;;;;;4995472;28;20430;-55
2021/07/01 12:12:10;;;;;;;7.68;3.38;;;18.00;99.90;;;;;;4988766;28;20540;-55
2021/07/01 12:14:41;;;;;;;7.40;3.10;;;17.90;99.90;;;;;;4989442;28;20391;-55
2021/07/01 12:17:08;;;;;;;6.90;2.97;;;18.00;99.90;;;;;;4988959;28;20398;-55
2021/07/01 12:19:46;;;;;;;7.40;3.65;;;18.50;99.90;;;;;;4989517;28;20382;-55
2021/07/01 12:22:42;;;;;;;5.90;3.00;;;18.50;99.90;;;;;;4988884;28;20387;-55
2021/07/01 12:25:30;;;;;;;7.37;3.13;;;18.30;99.90;;;;;;4983519;28;20402;-55
2021/07/01 12:28:05;;;;;;;6.53;3.22;;;18.50;99.90;;;;;;4988954;28;20402;-55
2021/07/01 12:30:55;;;;;;;6.75;3.08;;;19.50;99.90;;;;;;4990054;28;20436;-55
2021/07/01 12:33:38;;;;;;;8.07;3.15;;;18.90;99.90;;;;;;4989010;28;20392;-55
2021/07/01 12:36:10;;;;;;;9.25;3.45;;;18.70;99.90;;;;;;4988993;28;20441;-55
2021/07/01 12:38:37;;;;;;;7.05;3.83;;;18.70;99.90;;;;;;4980602;28;20414;-60
2021/07/01 12:41:05;;;;;;;7.15;3.47;;;19.40;99.90;;;;;;4985692;28;20391;-60
2021/07/01 12:43:52;;;;;;;6.65;3.42;;;19.60;99.90;;;;;;4987209;28;20387;-59
2021/07/01 12:46:43;;;;;;;7.53;3.30;;;19.50;99.90;;;;;;4987472;28;20447;-58
2021/07/01 12:49:15;;;;;;;7.38;3.45;;;19.60;99.90;;;;;;4988242;28;20828;-58
2021/07/01 12:51:45;;;;;;;7.70;3.77;;;19.50;99.90;;;;;;4988845;28;20528;-59
2021/07/01 12:54:31;;;;;;;8.65;3.90;;;19.40;99.90;;;;;;4987801;28;20749;-60
2021/07/01 12:56:57;;;;;;;7.50;3.70;;;19.50;99.90;;;;;;4980965;28;20425;-58
2021/07/01 12:59:35;;;;;;;7.43;3.65;;;19.20;99.90;;;;;;4997343;28;20410;-58
2021/07/01 13:02:05;;;;;;;7.60;3.80;;;19.40;99.90;;;;;;4992935;28;20408;-58
2021/07/01 13:04:32;;;;;;;7.23;3.53;;;19.60;99.90;;;;;;4997678;28;20505;-59
2021/07/01 13:06:59;;;;;;;8.30;3.40;;;19.80;99.90;;;;;;4996223;28;20466;-58
2021/07/01 13:09:35;;;;;;;8.02;3.42;;;20.00;99.90;;;;;;4995788;28;20396;-59
2021/07/01 13:12:03;;;;;;;7.30;3.50;;;20.20;99.90;;;;;;4995850;28;20407;-58
2021/07/01 13:14:33;;;;;;;7.30;3.20;;;20.00;99.90;;;;;;4991987;28;20398;-59
2021/07/01 13:17:08;;;;;;;7.90;3.50;;;19.50;99.90;;;;;;4987933;28;20383;-58
2021/07/01 13:19:51;;;;;;;7.50;3.50;;;19.30;99.90;;;;;;4986622;28;20390;-58
2021/07/01 13:22:32;;;;;;;8.85;4.13;;;19.20;99.90;;;;;;4984081;28;20473;-58
2021/07/01 13:25:03;;;;;;;8.10;3.67;;;18.80;99.90;;;;;;4994812;28;20729;-58
2021/07/01 13:27:49;;;;;;;6.53;3.30;;;18.70;99.90;;;;;;4997286;28;20494;-59
2021/07/01 13:30:24;;;;;;;7.43;3.38;;;18.60;99.90;;;;;;4995586;28;20463;-58
2021/07/01 13:32:52;;;;;;;10.55;3.90;;;18.60;99.90;;;;;;4996795;28;20391;-59
2021/07/01 13:35:21;;;;;;;8.80;3.60;;;18.40;99.90;;;;;;4994792;28;20390;-58
2021/07/01 13:37:49;;;;;;;6.82;3.30;;;18.20;99.90;;;;;;4992689;28;20402;-58
2021/07/01 13:40:22;;;;;;;7.32;3.55;;;18.10;99.90;;;;;;4970040;28;20409;-59
2021/07/01 13:42:50;;;;;;;7.20;3.35;;;17.60;99.90;;;;;;4987829;28;20825;-58
2021/07/01 13:45:18;;;;;;;7.15;3.45;;;17.30;99.90;;;;;;4987220;28;20422;-57
2021/07/01 13:47:49;;;;;;;6.97;3.50;;;17.00;99.90;;;;;;4987753;28;20488;-57
2021/07/01 13:50:25;;;;;;;6.00;3.10;;;16.90;99.90;;;;;;4987366;28;20717;-57
2021/07/01 13:52:52;;;;;;;7.20;3.50;;;16.90;99.90;;;;;;4988794;28;20477;-58
2021/07/01 13:55:37;;;;;;;9.33;3.97;;;16.90;99.90;;;;;;4991276;28;20458;-58
2021/07/01 13:58:04;;;;;;;8.57;4.07;;;16.80;99.90;;;;;;4988790;28;20876;-57